Time;durP1;ratioP1;P1;durP2;ratioP2;P2;SDS_P1;SDS_P2;PMS_P1;PMS_P2;Temp;Humidity;BMP_temperature;BMP_pressure;BME280_temperature;BME280_humidity;BME280_pressure;Samples;Min_cycle;Max_cycle;Signal;HPM_P1;HPM_P2
2022/12/09 00:00:38;;;;;;;41.10;21.37;;;-0.70;99.90;;;;;;5054830;28;21052;-75
2022/12/09 00:03:04;;;;;;;49.53;22.75;;;-0.80;99.90;;;;;;5095458;28;20428;-75
2022/12/09 00:05:30;;;;;;;39.17;21.17;;;-0.80;99.90;;;;;;5075762;28;20408;-75
2022/12/09 00:07:56;;;;;;;42.03;20.83;;;-0.80;99.90;;;;;;5089402;28;20433;-75
2022/12/09 00:10:21;;;;;;;41.10;21.08;;;-0.80;99.90;;;;;;5084067;28;20396;-75
2022/12/09 00:12:47;;;;;;;37.40;19.90;;;-0.80;99.90;;;;;;5069859;28;20475;-75
2022/12/09 00:15:13;;;;;;;36.42;19.70;;;-0.90;99.90;;;;;;5101248;28;20734;-75
2022/12/09 00:17:38;;;;;;;40.17;20.97;;;-0.80;99.90;;;;;;5089580;28;20406;-75
2022/12/09 00:20:05;;;;;;;35.53;20.00;;;-0.90;99.90;;;;;;5088902;28;21564;-75
2022/12/09 00:22:30;;;;;;;33.03;18.20;;;-0.90;99.90;;;;;;5068223;28;20407;-75
2022/12/09 00:24:56;;;;;;;45.15;21.90;;;-0.90;99.90;;;;;;5082482;28;20491;-75
2022/12/09 00:27:21;;;;;;;35.15;20.08;;;-0.90;99.90;;;;;;5077944;28;20810;-75
2022/12/09 00:29:47;;;;;;;39.73;21.10;;;-0.90;99.90;;;;;;5089469;28;20436;-75
2022/12/09 00:32:13;;;;;;;32.38;19.25;;;-1.00;99.90;;;;;;5088191;28;20471;-75
2022/12/09 00:34:38;;;;;;;51.33;22.20;;;-1.00;99.90;;;;;;5087280;28;20406;-75
2022/12/09 00:37:04;;;;;;;38.13;20.70;;;-1.00;99.90;;;;;;5083554;28;20404;-75
2022/12/09 00:39:30;;;;;;;43.17;22.58;;;-1.00;99.90;;;;;;5088404;28;20406;-75
2022/12/09 00:41:55;;;;;;;38.07;21.67;;;-1.00;99.90;;;;;;5077286;28;20492;-75
2022/12/09 00:44:21;;;;;;;38.33;20.83;;;-1.00;99.90;;;;;;5088764;28;20394;-75
2022/12/09 00:46:46;;;;;;;40.13;21.33;;;-1.00;99.90;;;;;;5067546;28;20426;-75
2022/12/09 00:49:12;;;;;;;47.80;21.87;;;-1.00;99.90;;;;;;5087283;28;20496;-75
2022/12/09 00:51:38;;;;;;;46.72;21.95;;;-1.00;99.90;;;;;;5076950;28;20423;-75
2022/12/09 00:54:03;;;;;;;42.87;21.47;;;-1.00;99.90;;;;;;5083046;28;20403;-75
2022/12/09 00:56:29;;;;;;;39.63;20.60;;;-1.00;99.90;;;;;;5080924;28;20765;-75
2022/12/09 00:58:56;;;;;;;37.25;20.08;;;-1.00;99.90;;;;;;5083920;28;20757;-75
2022/12/09 01:01:22;;;;;;;35.95;19.92;;;-1.00;99.90;;;;;;5079963;28;20406;-75
2022/12/09 01:03:48;;;;;;;39.22;20.02;;;-1.00;99.90;;;;;;5077640;28;20528;-75
2022/12/09 01:06:17;;;;;;;36.05;20.45;;;-1.00;99.90;;;;;;5088778;28;20488;-75
2022/12/09 01:08:43;;;;;;;39.08;20.48;;;-1.00;99.90;;;;;;5086673;28;20420;-75
2022/12/09 01:11:11;;;;;;;38.05;20.20;;;-1.00;99.90;;;;;;5076013;28;20541;-75
2022/12/09 01:13:37;;;;;;;42.92;21.95;;;-1.00;99.90;;;;;;5087172;28;20483;-75
2022/12/09 01:16:03;;;;;;;43.17;21.92;;;-1.00;99.90;;;;;;5086905;28;20460;-75
2022/12/09 01:18:28;;;;;;;40.30;20.88;;;-1.00;99.90;;;;;;5082256;28;20779;-75
2022/12/09 01:20:58;;;;;;;45.50;22.27;;;-1.00;99.90;;;;;;5078813;28;20407;-75
2022/12/09 01:23:24;;;;;;;39.42;20.25;;;-1.00;99.90;;;;;;5082244;28;20438;-75
2022/12/09 01:25:49;;;;;;;36.50;19.80;;;-1.00;99.90;;;;;;5082090;28;20426;-75
2022/12/09 01:28:15;;;;;;;36.90;19.88;;;-0.90;99.90;;;;;;5087818;28;20434;-75
2022/12/09 01:30:41;;;;;;;34.97;19.27;;;-1.00;99.90;;;;;;5086193;28;20741;-75
2022/12/09 01:33:06;;;;;;;38.08;19.83;;;-1.00;99.90;;;;;;5086996;28;20489;-75
2022/12/09 01:35:32;;;;;;;34.30;18.50;;;-0.90;99.90;;;;;;5088119;28;20405;-75
2022/12/09 01:37:58;;;;;;;35.53;18.67;;;-0.90;99.90;;;;;;5087879;28;20398;-75
2022/12/09 01:40:23;;;;;;;33.20;17.92;;;-0.90;99.90;;;;;;5088005;28;20394;-75
2022/12/09 01:42:50;;;;;;;36.47;18.77;;;-1.00;99.90;;;;;;5087758;28;20523;-75
2022/12/09 01:45:18;;;;;;;36.10;19.02;;;-1.00;99.90;;;;;;5079202;28;20409;-75
2022/12/09 01:47:46;;;;;;;34.72;18.50;;;-1.00;99.90;;;;;;5087594;28;20438;-75
2022/12/09 01:50:11;;;;;;;32.00;18.08;;;-1.00;99.90;;;;;;5087048;28;20413;-75
2022/12/09 01:52:37;;;;;;;38.83;18.52;;;-1.00;99.90;;;;;;5069558;28;20771;-75
2022/12/09 01:55:04;;;;;;;37.43;17.90;;;-1.00;99.90;;;;;;5068171;28;20406;-76
2022/12/09 01:57:30;;;;;;;34.78;18.23;;;-1.00;99.90;;;;;;5066561;28;20408;-75
2022/12/09 01:59:55;;;;;;;35.25;17.73;;;-1.00;99.90;;;;;;5081631;28;20401;-75
2022/12/09 02:02:22;;;;;;;34.87;17.57;;;-0.90;99.90;;;;;;5087225;28;20485;-75
2022/12/09 02:04:49;;;;;;;34.75;17.70;;;-0.90;99.90;;;;;;5073630;28;20404;-75
2022/12/09 02:07:17;;;;;;;37.20;17.58;;;-0.80;99.90;;;;;;5074548;28;20422;-75
2022/12/09 02:09:43;;;;;;;35.72;17.80;;;-0.70;99.90;;;;;;5074115;28;20978;-75
2022/12/09 02:12:45;;;;;;;34.80;17.35;;;-0.70;99.90;;;;;;5088072;28;20508;-75
2022/12/09 02:15:28;;;;;;;33.60;16.83;;;-0.60;99.90;;;;;;5087128;28;20421;-75
2022/12/09 02:18:02;;;;;;;30.03;15.77;;;-0.60;99.90;;;;;;5073291;28;20513;-75
2022/12/09 02:20:42;;;;;;;31.97;16.03;;;-0.60;99.90;;;;;;5082794;28;20407;-75
2022/12/09 02:23:21;;;;;;;32.13;15.50;;;-0.60;99.90;;;;;;5066921;28;20479;-75
2022/12/09 02:26:07;;;;;;;31.17;14.63;;;-0.60;99.90;;;;;;5087030;28;20447;-75
2022/12/09 02:28:54;;;;;;;27.30;13.95;;;-0.60;99.90;;;;;;5076125;28;20430;-75
2022/12/09 02:31:26;;;;;;;26.58;14.40;;;-0.60;99.90;;;;;;5082487;28;20442;-75
2022/12/09 02:34:11;;;;;;;26.55;13.52;;;-0.50;99.90;;;;;;5068238;28;20403;-73
2022/12/09 02:36:59;;;;;;;25.63;13.68;;;-0.60;99.90;;;;;;5069054;28;20422;-74
2022/12/09 02:39:35;;;;;;;26.65;13.65;;;-0.50;99.90;;;;;;5084700;28;20406;-74
2022/12/09 02:42:03;;;;;;;29.83;13.73;;;-0.60;99.90;;;;;;5087643;28;20402;-74
2022/12/09 02:44:29;;;;;;;27.38;13.30;;;-0.60;99.90;;;;;;5084581;28;20440;-74
2022/12/09 02:46:56;;;;;;;27.45;13.70;;;-0.60;99.90;;;;;;5086767;28;20426;-74
2022/12/09 02:49:24;;;;;;;27.60;14.15;;;-0.60;99.90;;;;;;5087109;28;20745;-74
2022/12/09 02:51:50;;;;;;;27.73;13.95;;;-0.60;99.90;;;;;;5087147;28;20467;-74
2022/12/09 02:54:17;;;;;;;29.20;14.10;;;-0.60;99.90;;;;;;5087085;28;20405;-74
2022/12/09 02:56:56;;;;;;;25.98;14.05;;;-0.60;99.90;;;;;;5087016;28;20450;-74
2022/12/09 02:59:22;;;;;;;28.95;13.20;;;-0.60;99.90;;;;;;5087643;28;20398;-74
2022/12/09 03:02:01;;;;;;;26.73;13.87;;;-0.60;99.90;;;;;;5073666;28;20396;-74
2022/12/09 03:04:28;;;;;;;28.55;14.05;;;-0.60;99.90;;;;;;5087631;28;20408;-74
2022/12/09 03:07:02;;;;;;;28.50;14.10;;;-0.60;99.90;;;;;;5081308;28;20432;-74
2022/12/09 03:09:33;;;;;;;25.10;12.90;;;-0.60;99.90;;;;;;5097897;28;20912;-74
2022/12/09 03:12:03;;;;;;;27.40;13.50;;;-0.60;99.90;;;;;;5090451;28;20437;-74
2022/12/09 03:14:36;;;;;;;27.48;13.18;;;-0.60;99.90;;;;;;5077618;28;20410;-74
2022/12/09 03:17:12;;;;;;;30.73;13.90;;;-0.60;99.90;;;;;;5074039;28;20426;-74
2022/12/09 03:19:52;;;;;;;31.08;14.45;;;-0.60;99.90;;;;;;5072959;28;20430;-74
2022/12/09 03:22:22;;;;;;;27.80;13.88;;;-0.60;99.90;;;;;;5082224;28;20529;-74
2022/12/09 03:24:54;;;;;;;28.80;13.93;;;-0.60;99.90;;;;;;5077837;28;20923;-74
2022/12/09 03:27:27;;;;;;;25.23;13.50;;;-0.60;99.90;;;;;;5090874;28;20425;-74
2022/12/09 03:29:55;;;;;;;29.25;13.40;;;-0.60;99.90;;;;;;5088808;28;20780;-74
2022/12/09 03:32:25;;;;;;;27.58;13.27;;;-0.60;99.90;;;;;;5077296;28;20448;-74
2022/12/09 03:35:07;;;;;;;27.45;13.40;;;-0.60;99.90;;;;;;5073812;28;20404;-74
2022/12/09 03:37:35;;;;;;;31.63;14.23;;;-0.60;99.90;;;;;;5074540;28;20409;-74
2022/12/09 03:40:03;;;;;;;25.17;12.80;;;-0.70;99.90;;;;;;5090485;28;20406;-74
2022/12/09 03:42:44;;;;;;;26.52;13.48;;;-0.70;99.90;;;;;;5089985;28;20781;-74
2022/12/09 03:45:12;;;;;;;29.15;13.80;;;-0.70;99.90;;;;;;5068618;28;20418;-74
2022/12/09 03:47:38;;;;;;;29.80;13.65;;;-0.80;99.90;;;;;;5086233;28;20483;-74
2022/12/09 03:50:06;;;;;;;27.55;13.73;;;-0.70;99.90;;;;;;5090688;28;20402;-74
2022/12/09 03:52:39;;;;;;;30.48;14.35;;;-0.70;99.90;;;;;;5076433;28;20413;-75
2022/12/09 03:55:12;;;;;;;30.98;14.88;;;-0.70;99.90;;;;;;5089852;28;20422;-74
2022/12/09 03:57:42;;;;;;;32.40;15.38;;;-0.70;99.90;;;;;;5082623;28;20469;-74
2022/12/09 04:00:08;;;;;;;30.57;14.87;;;-0.70;99.90;;;;;;5060475;28;20503;-74
2022/12/09 04:02:33;;;;;;;32.47;15.25;;;-0.70;99.90;;;;;;5089530;28;20444;-74
2022/12/09 04:04:59;;;;;;;35.03;14.63;;;-0.70;99.90;;;;;;5088891;28;20402;-74
2022/12/09 04:07:25;;;;;;;33.33;15.65;;;-0.70;99.90;;;;;;5089853;28;20773;-74
2022/12/09 04:09:51;;;;;;;33.20;15.63;;;-0.60;99.90;;;;;;5086481;28;20433;-75
2022/12/09 04:12:16;;;;;;;35.00;15.65;;;-0.70;99.90;;;;;;5083904;28;20404;-75
2022/12/09 04:14:42;;;;;;;32.17;15.67;;;-0.60;99.90;;;;;;5082182;28;20397;-74
2022/12/09 04:17:08;;;;;;;37.27;16.50;;;-0.60;99.90;;;;;;5088687;28;20533;-75
2022/12/09 04:19:34;;;;;;;31.33;15.87;;;-0.60;99.90;;;;;;5075300;28;20400;-74
2022/12/09 04:22:00;;;;;;;34.53;16.07;;;-0.50;99.90;;;;;;5069629;28;20404;-75
2022/12/09 04:24:25;;;;;;;32.00;15.32;;;-0.50;99.90;;;;;;5077966;28;20419;-74
2022/12/09 04:26:51;;;;;;;32.20;15.93;;;-0.50;99.90;;;;;;5086558;28;20440;-75
2022/12/09 04:29:16;;;;;;;32.03;16.27;;;-0.50;99.90;;;;;;5089532;28;20432;-74
2022/12/09 04:31:42;;;;;;;33.13;16.13;;;-0.60;99.90;;;;;;5088932;28;20410;-75
2022/12/09 04:34:07;;;;;;;34.00;16.53;;;-0.60;99.90;;;;;;5079763;28;20415;-75
2022/12/09 04:36:33;;;;;;;29.52;15.25;;;-0.60;99.90;;;;;;5083823;28;20399;-74
2022/12/09 04:38:59;;;;;;;31.10;15.77;;;-0.60;99.90;;;;;;5075697;28;20412;-74
2022/12/09 04:41:24;;;;;;;34.55;15.40;;;-0.60;99.90;;;;;;5080535;28;20411;-75
2022/12/09 04:43:50;;;;;;;30.83;15.33;;;-0.70;99.90;;;;;;5068884;28;20403;-74
2022/12/09 04:46:17;;;;;;;34.27;15.70;;;-0.70;99.90;;;;;;5082131;28;20404;-75
2022/12/09 04:48:43;;;;;;;33.28;15.80;;;-0.80;99.90;;;;;;5083219;28;20434;-74
2022/12/09 04:51:11;;;;;;;33.23;15.93;;;-0.80;99.90;;;;;;5080441;28;20410;-75
2022/12/09 04:53:37;;;;;;;27.90;14.50;;;-0.80;99.90;;;;;;5070933;28;20422;-74
2022/12/09 04:56:06;;;;;;;31.67;15.20;;;-0.90;99.90;;;;;;5075662;28;20394;-74
2022/12/09 04:58:32;;;;;;;33.03;15.00;;;-0.90;99.90;;;;;;5087789;28;20409;-74
2022/12/09 05:00:58;;;;;;;30.47;15.30;;;-0.90;99.90;;;;;;5057070;28;20406;-74
2022/12/09 05:03:24;;;;;;;32.37;15.40;;;-1.00;99.90;;;;;;5088830;28;20398;-74
2022/12/09 05:05:50;;;;;;;30.65;15.27;;;-1.00;99.90;;;;;;5086958;28;20822;-74
2022/12/09 05:08:16;;;;;;;29.83;15.32;;;-1.00;99.90;;;;;;5066716;28;20428;-74
2022/12/09 05:10:46;;;;;;;32.85;15.57;;;-1.00;99.90;;;;;;5075522;28;20749;-74
2022/12/09 05:13:12;;;;;;;29.58;15.07;;;-1.00;99.90;;;;;;5083830;28;20771;-74
2022/12/09 05:15:37;;;;;;;31.53;16.17;;;-1.10;99.90;;;;;;5079836;28;20505;-74
2022/12/09 05:18:03;;;;;;;33.55;17.08;;;-1.10;99.90;;;;;;5088558;28;20793;-75
2022/12/09 05:20:29;;;;;;;42.03;21.50;;;-1.10;99.90;;;;;;5088551;28;20398;-74
2022/12/09 05:22:55;;;;;;;51.53;26.10;;;-1.20;99.90;;;;;;5087785;28;20481;-75
2022/12/09 05:25:21;;;;;;;48.08;25.63;;;-1.10;99.90;;;;;;5088420;28;20757;-74
2022/12/09 05:27:47;;;;;;;46.42;22.75;;;-1.20;99.90;;;;;;5058153;28;20501;-75
2022/12/09 05:30:13;;;;;;;36.93;18.67;;;-1.20;99.90;;;;;;5086152;28;21183;-74
2022/12/09 05:32:38;;;;;;;33.97;17.47;;;-1.20;99.90;;;;;;5080502;28;20926;-74
2022/12/09 05:35:04;;;;;;;35.37;17.33;;;-1.20;99.90;;;;;;5064043;28;20456;-74
2022/12/09 05:37:30;;;;;;;32.55;15.93;;;-1.20;99.90;;;;;;5080659;28;20404;-75
2022/12/09 05:39:55;;;;;;;30.57;15.33;;;-1.20;99.90;;;;;;5080126;28;20751;-74
2022/12/09 05:42:21;;;;;;;30.20;14.77;;;-1.20;99.90;;;;;;5086911;28;20481;-74
2022/12/09 05:44:47;;;;;;;30.55;16.00;;;-1.20;99.90;;;;;;5087464;28;20783;-74
2022/12/09 05:47:12;;;;;;;32.03;15.80;;;-1.20;99.90;;;;;;5081555;28;20537;-75
2022/12/09 05:49:38;;;;;;;31.73;15.90;;;-1.20;99.90;;;;;;5074412;28;20400;-74
2022/12/09 05:52:04;;;;;;;29.70;15.30;;;-1.20;99.90;;;;;;5080807;28;20947;-75
2022/12/09 05:54:29;;;;;;;34.00;16.37;;;-1.30;99.90;;;;;;5087330;28;20430;-74
2022/12/09 05:56:56;;;;;;;34.07;15.87;;;-1.30;99.90;;;;;;5087187;28;20441;-74
2022/12/09 05:59:22;;;;;;;31.40;15.65;;;-1.30;99.90;;;;;;5082770;28;20408;-74
2022/12/09 06:01:49;;;;;;;30.77;15.70;;;-1.30;99.90;;;;;;5080710;28;20396;-74
2022/12/09 06:04:14;;;;;;;32.05;15.93;;;-1.30;99.90;;;;;;5087149;28;20398;-74
2022/12/09 06:06:40;;;;;;;34.95;16.73;;;-1.30;99.90;;;;;;5058948;28;20874;-75
2022/12/09 06:09:10;;;;;;;34.72;16.48;;;-1.30;99.90;;;;;;5087509;28;20406;-74
2022/12/09 06:11:37;;;;;;;33.28;16.00;;;-1.30;99.90;;;;;;5059787;28;20411;-74
2022/12/09 06:14:03;;;;;;;35.97;17.15;;;-1.30;99.90;;;;;;5080111;28;20401;-74
2022/12/09 06:16:29;;;;;;;31.93;16.77;;;-1.40;99.90;;;;;;5086691;28;20417;-74
2022/12/09 06:18:55;;;;;;;35.03;16.90;;;-1.30;99.90;;;;;;5086692;28;20773;-74
2022/12/09 06:21:21;;;;;;;32.97;15.93;;;-1.40;99.90;;;;;;5080537;28;20415;-74
2022/12/09 06:23:48;;;;;;;36.13;17.58;;;-1.40;99.90;;;;;;5086567;28;20402;-74
2022/12/09 06:26:15;;;;;;;34.50;17.13;;;-1.30;99.90;;;;;;5068887;28;20506;-74
2022/12/09 06:28:41;;;;;;;34.85;16.67;;;-1.40;99.90;;;;;;5071403;28;20439;-74
2022/12/09 06:31:06;;;;;;;35.45;16.77;;;-1.40;99.90;;;;;;5086779;28;20397;-74
2022/12/09 06:33:32;;;;;;;34.30;17.13;;;-1.40;99.90;;;;;;5079984;28;20395;-74
2022/12/09 06:36:01;;;;;;;38.50;18.08;;;-1.30;99.90;;;;;;5077249;28;20460;-74
2022/12/09 06:38:27;;;;;;;34.42;17.50;;;-1.30;99.90;;;;;;5086709;28;20398;-74
2022/12/09 06:40:53;;;;;;;34.10;16.97;;;-1.30;99.90;;;;;;5072036;28;20424;-74
2022/12/09 06:43:18;;;;;;;36.73;17.37;;;-1.30;99.90;;;;;;5078129;28;20488;-73
2022/12/09 06:45:44;;;;;;;35.17;16.92;;;-1.30;99.90;;;;;;5089978;28;20406;-73
2022/12/09 06:48:10;;;;;;;34.83;16.30;;;-1.30;99.90;;;;;;5089003;28;20437;-74
2022/12/09 06:50:36;;;;;;;34.00;17.00;;;-1.30;99.90;;;;;;5059812;28;21149;-74
2022/12/09 06:53:01;;;;;;;35.85;17.67;;;-1.30;99.90;;;;;;5090657;28;20398;-74
2022/12/09 06:55:27;;;;;;;34.22;16.77;;;-1.30;99.90;;;;;;5085851;28;20420;-74
2022/12/09 06:57:52;;;;;;;36.00;17.60;;;-1.30;99.90;;;;;;5088434;28;20499;-74
2022/12/09 07:00:18;;;;;;;34.42;17.73;;;-1.30;99.90;;;;;;5077292;28;20409;-74
2022/12/09 07:02:44;;;;;;;37.45;18.27;;;-1.30;99.90;;;;;;5100481;28;20756;-74
2022/12/09 07:05:10;;;;;;;38.33;18.23;;;-1.20;99.90;;;;;;5079709;27;20414;-74
2022/12/09 07:07:35;;;;;;;38.63;18.47;;;-1.30;99.90;;;;;;5090879;28;20787;-74
2022/12/09 07:10:05;;;;;;;38.07;18.10;;;-1.30;99.90;;;;;;5085795;28;20461;-75
2022/12/09 07:12:31;;;;;;;40.15;18.27;;;-1.30;99.90;;;;;;5080178;28;20414;-74
2022/12/09 07:14:56;;;;;;;38.90;19.60;;;-1.20;99.90;;;;;;5088529;28;20405;-75
2022/12/09 07:17:22;;;;;;;37.83;18.50;;;-1.20;99.90;;;;;;5091001;28;20837;-74
2022/12/09 07:19:48;;;;;;;39.33;18.88;;;-1.20;99.90;;;;;;5076859;28;20473;-74
2022/12/09 07:22:13;;;;;;;38.27;18.17;;;-1.20;99.90;;;;;;5089735;28;20409;-75
2022/12/09 07:24:40;;;;;;;39.60;18.77;;;-1.20;99.90;;;;;;5076188;28;20413;-74
2022/12/09 07:27:07;;;;;;;36.42;18.13;;;-1.20;99.90;;;;;;5079414;28;20438;-74
2022/12/09 07:29:33;;;;;;;35.58;17.88;;;-1.20;99.90;;;;;;5087289;28;20398;-74
2022/12/09 07:31:59;;;;;;;37.92;19.08;;;-1.20;99.90;;;;;;5090315;28;20441;-75
2022/12/09 07:34:25;;;;;;;38.05;18.25;;;-1.20;99.90;;;;;;5075783;28;20426;-74
2022/12/09 07:36:50;;;;;;;35.03;18.30;;;-1.20;99.90;;;;;;5078282;28;20457;-74
2022/12/09 07:39:17;;;;;;;37.27;18.20;;;-1.20;99.90;;;;;;5086663;28;20394;-74
2022/12/09 07:41:43;;;;;;;36.78;17.65;;;-1.20;99.90;;;;;;5061886;28;20412;-74
2022/12/09 07:44:10;;;;;;;37.13;17.98;;;-1.20;99.90;;;;;;5071380;28;20411;-74
2022/12/09 07:46:36;;;;;;;39.35;19.25;;;-1.20;99.90;;;;;;5078982;28;20955;-74
2022/12/09 07:49:04;;;;;;;40.20;19.38;;;-1.20;99.90;;;;;;5084471;28;20402;-74
2022/12/09 07:51:31;;;;;;;38.13;19.25;;;-1.20;99.90;;;;;;5079192;28;20414;-74
2022/12/09 07:53:57;;;;;;;39.83;19.17;;;-1.10;99.90;;;;;;5074819;28;20493;-74
2022/12/09 07:56:23;;;;;;;42.65;20.20;;;-1.10;99.90;;;;;;5089767;28;20402;-74
2022/12/09 07:58:53;;;;;;;42.50;20.52;;;-1.10;99.90;;;;;;5087849;28;20412;-74
2022/12/09 08:01:26;;;;;;;39.25;18.85;;;-1.00;99.90;;;;;;5089978;28;20402;-74
2022/12/09 08:03:52;;;;;;;39.38;18.90;;;-1.00;99.90;;;;;;5084169;28;20419;-74
2022/12/09 08:06:20;;;;;;;39.47;20.48;;;-1.00;99.90;;;;;;5091145;28;20467;-74
2022/12/09 08:08:47;;;;;;;37.97;19.00;;;-1.00;99.90;;;;;;5088963;28;20426;-74
2022/12/09 08:11:15;;;;;;;40.65;18.95;;;-1.00;99.90;;;;;;5089461;28;20986;-74
2022/12/09 08:13:41;;;;;;;40.90;19.77;;;-1.00;99.90;;;;;;5073677;28;20459;-74
2022/12/09 08:16:09;;;;;;;40.97;19.77;;;-1.00;99.90;;;;;;5083007;28;20893;-74
2022/12/09 08:18:36;;;;;;;42.78;20.83;;;-1.00;99.90;;;;;;5086256;28;20409;-74
2022/12/09 08:21:10;;;;;;;40.72;19.83;;;-0.90;99.90;;;;;;5089653;28;20743;-74
2022/12/09 08:23:37;;;;;;;41.70;20.83;;;-0.90;99.90;;;;;;5067784;28;20440;-74
2022/12/09 08:26:03;;;;;;;43.00;20.55;;;-0.90;99.90;;;;;;5073975;28;20396;-74
2022/12/09 08:28:29;;;;;;;45.50;20.80;;;-0.90;99.90;;;;;;5089364;28;21086;-74
2022/12/09 08:30:55;;;;;;;41.50;20.75;;;-0.80;99.90;;;;;;5087625;28;20425;-74
2022/12/09 08:33:20;;;;;;;43.55;21.25;;;-0.80;99.90;;;;;;5089088;28;20401;-74
2022/12/09 08:35:46;;;;;;;42.77;20.93;;;-0.70;99.90;;;;;;5087804;28;20402;-74
2022/12/09 08:38:11;;;;;;;45.33;20.90;;;-0.70;99.90;;;;;;5088010;28;20397;-74
2022/12/09 08:40:37;;;;;;;45.83;21.90;;;-0.70;99.90;;;;;;5082498;28;20806;-74
2022/12/09 08:43:05;;;;;;;45.75;22.23;;;-0.70;99.90;;;;;;5067842;28;20404;-74
2022/12/09 08:45:38;;;;;;;46.60;22.43;;;-0.70;99.90;;;;;;5077791;28;20404;-74
2022/12/09 08:48:05;;;;;;;47.13;22.05;;;-0.60;99.90;;;;;;5087137;28;20884;-74
2022/12/09 08:50:31;;;;;;;44.00;22.00;;;-0.60;99.90;;;;;;5088126;28;20398;-74
2022/12/09 08:52:57;;;;;;;47.20;22.42;;;-0.60;99.90;;;;;;5088503;28;20418;-74
2022/12/09 08:55:23;;;;;;;47.83;22.77;;;-0.60;99.90;;;;;;5080961;28;20439;-74
2022/12/09 08:57:48;;;;;;;48.30;23.85;;;-0.50;99.90;;;;;;5083415;28;20457;-74
2022/12/09 09:00:15;;;;;;;48.55;23.25;;;-0.50;99.90;;;;;;5089162;28;20409;-74
2022/12/09 09:02:41;;;;;;;48.88;23.27;;;-0.40;99.90;;;;;;5088027;28;20788;-74
2022/12/09 09:05:06;;;;;;;46.63;22.60;;;-0.30;99.90;;;;;;5089488;28;20402;-74
2022/12/09 09:07:32;;;;;;;50.97;23.70;;;-0.20;99.90;;;;;;5088350;28;20426;-74
2022/12/09 09:09:59;;;;;;;48.30;23.15;;;-0.20;99.90;;;;;;5082160;28;20803;-74
2022/12/09 09:12:28;;;;;;;49.88;23.30;;;-0.10;99.90;;;;;;5080499;28;20448;-74
2022/12/09 09:14:54;;;;;;;49.35;23.50;;;-0.10;99.90;;;;;;5081709;28;20434;-74
2022/12/09 09:17:21;;;;;;;45.37;22.13;;;0.00;99.90;;;;;;5068924;28;20501;-74
2022/12/09 09:19:46;;;;;;;45.17;22.50;;;0.00;99.90;;;;;;5052502;28;20404;-74
2022/12/09 09:22:12;;;;;;;49.15;23.48;;;0.00;99.90;;;;;;5088938;28;20417;-74
2022/12/09 09:24:38;;;;;;;44.70;22.67;;;0.00;99.90;;;;;;5087048;28;20885;-74
2022/12/09 09:27:04;;;;;;;45.67;22.40;;;0.00;99.90;;;;;;5088866;28;20425;-74
2022/12/09 09:29:30;;;;;;;47.60;23.10;;;0.10;99.90;;;;;;5088464;28;20406;-74
2022/12/09 09:31:56;;;;;;;50.17;24.73;;;0.10;99.90;;;;;;5084178;28;20403;-74
2022/12/09 09:34:23;;;;;;;48.15;23.17;;;0.10;99.90;;;;;;5070819;28;20407;-74
2022/12/09 09:36:49;;;;;;;46.50;22.90;;;0.20;99.90;;;;;;5087102;28;20402;-74
2022/12/09 09:39:16;;;;;;;44.35;21.70;;;0.20;99.90;;;;;;5087263;28;20409;-74
2022/12/09 09:42:12;;;;;;;43.37;21.40;;;0.20;99.90;;;;;;5086296;28;20452;-74
2022/12/09 09:44:50;;;;;;;44.28;22.10;;;0.30;99.90;;;;;;5082501;28;20414;-75
2022/12/09 09:47:27;;;;;;;43.87;22.90;;;0.30;99.90;;;;;;5068323;28;20438;-74
2022/12/09 09:50:19;;;;;;;45.92;22.92;;;0.30;99.90;;;;;;5077397;28;20414;-74
2022/12/09 09:52:45;;;;;;;43.40;22.48;;;0.40;99.90;;;;;;5081276;28;20461;-74
2022/12/09 09:55:16;;;;;;;41.85;22.50;;;0.40;99.90;;;;;;5067152;28;20411;-74
2022/12/09 09:57:48;;;;;;;45.80;23.27;;;0.40;99.90;;;;;;5073618;28;20447;-74
2022/12/09 10:00:30;;;;;;;44.88;22.60;;;0.50;99.90;;;;;;5073872;28;20403;-74
2022/12/09 10:03:12;;;;;;;39.88;21.45;;;0.50;99.90;;;;;;5076702;28;20417;-74
2022/12/09 10:06:08;;;;;;;42.65;22.27;;;0.60;99.90;;;;;;5087142;28;20409;-74
2022/12/09 10:09:01;;;;;;;44.13;22.92;;;0.60;99.90;;;;;;5069578;28;20513;-74
2022/12/09 10:12:05;;;;;;;44.78;23.13;;;0.60;99.90;;;;;;5081006;28;20402;-74
2022/12/09 10:14:47;;;;;;;45.17;23.23;;;0.70;99.90;;;;;;5066603;28;20973;-74
2022/12/09 10:17:35;;;;;;;44.97;22.67;;;0.70;99.90;;;;;;5075487;28;20425;-74
2022/12/09 10:20:10;;;;;;;45.03;23.93;;;0.70;99.90;;;;;;5082838;28;20553;-74
2022/12/09 10:22:48;;;;;;;46.08;23.83;;;0.80;99.90;;;;;;5078324;28;20821;-74
2022/12/09 10:25:23;;;;;;;45.17;23.77;;;0.80;99.90;;;;;;5086091;28;20414;-74
2022/12/09 10:28:00;;;;;;;45.03;23.30;;;0.80;99.90;;;;;;5087020;28;20451;-74
2022/12/09 10:30:26;;;;;;;43.90;23.95;;;0.90;99.90;;;;;;5078449;28;20400;-74
2022/12/09 10:32:52;;;;;;;49.33;25.17;;;0.90;99.90;;;;;;5084548;28;21135;-74
2022/12/09 10:35:28;;;;;;;46.67;24.23;;;0.90;99.90;;;;;;5082530;28;20407;-74
2022/12/09 10:38:03;;;;;;;42.08;23.20;;;0.90;99.90;;;;;;5080453;28;20442;-74
2022/12/09 10:40:37;;;;;;;45.13;24.30;;;1.00;99.90;;;;;;5074383;28;20412;-74
2022/12/09 10:43:34;;;;;;;47.83;24.90;;;1.00;99.90;;;;;;5070160;28;20419;-74
2022/12/09 10:46:06;;;;;;;45.83;25.27;;;1.10;99.90;;;;;;5066245;28;20557;-74
2022/12/09 10:48:33;;;;;;;48.58;25.60;;;1.30;99.90;;;;;;5049665;28;20957;-74
2022/12/09 10:51:03;;;;;;;44.33;23.83;;;1.40;99.90;;;;;;5079828;28;20407;-74
2022/12/09 10:53:31;;;;;;;44.42;24.40;;;1.50;99.90;;;;;;5079821;28;20444;-74
2022/12/09 10:55:59;;;;;;;42.33;24.65;;;1.60;99.90;;;;;;5081437;28;20407;-75
2022/12/09 10:58:27;;;;;;;43.10;24.20;;;1.70;99.90;;;;;;5067349;28;20484;-74
2022/12/09 11:01:12;;;;;;;45.28;24.02;;;1.70;99.90;;;;;;5055478;28;20414;-74
2022/12/09 11:03:48;;;;;;;48.35;25.52;;;1.80;99.90;;;;;;5085358;28;20424;-74
2022/12/09 11:06:20;;;;;;;41.65;24.20;;;1.90;99.90;;;;;;5075913;28;20458;-74
2022/12/09 11:08:53;;;;;;;43.00;24.38;;;2.10;99.90;;;;;;5064482;28;20435;-75
2022/12/09 11:11:19;;;;;;;40.22;23.95;;;2.30;99.90;;;;;;5077920;28;20405;-75
2022/12/09 11:13:45;;;;;;;40.57;23.70;;;2.90;99.90;;;;;;5073479;28;20803;-75
2022/12/09 11:16:11;;;;;;;35.40;23.13;;;3.40;99.90;;;;;;5082223;28;20407;-75
2022/12/09 11:18:47;;;;;;;34.63;21.90;;;3.70;99.90;;;;;;5067707;28;20922;-75
2022/12/09 11:21:34;;;;;;;32.55;20.67;;;4.00;99.90;;;;;;5080098;28;20401;-75
2022/12/09 11:24:01;;;;;;;33.47;21.10;;;4.30;99.90;;;;;;5075397;28;20963;-75
2022/12/09 11:26:37;;;;;;;32.35;21.20;;;4.40;99.90;;;;;;5086302;28;20481;-75
2022/12/09 11:29:16;;;;;;;32.63;21.20;;;4.30;99.90;;;;;;5085903;28;20432;-75
2022/12/09 11:31:43;;;;;;;32.53;22.25;;;4.00;99.90;;;;;;5090186;28;20398;-75
2022/12/09 11:34:24;;;;;;;33.75;21.80;;;3.80;99.90;;;;;;5090284;28;20397;-75
2022/12/09 11:36:55;;;;;;;33.10;21.65;;;3.70;99.90;;;;;;5083763;28;20470;-75
2022/12/09 11:39:31;;;;;;;35.22;22.90;;;3.40;99.90;;;;;;5085440;28;20540;-75
2022/12/09 11:42:13;;;;;;;34.03;22.02;;;3.20;99.90;;;;;;5090192;28;20485;-74
2022/12/09 11:44:55;;;;;;;40.00;23.27;;;3.10;99.90;;;;;;5089593;28;20394;-74
2022/12/09 11:47:30;;;;;;;42.57;24.20;;;2.90;99.90;;;;;;5088469;28;20454;-74
2022/12/09 11:50:11;;;;;;;45.50;25.25;;;2.90;99.90;;;;;;5090456;28;20412;-75
2022/12/09 11:52:37;;;;;;;58.40;25.58;;;2.80;99.90;;;;;;5089920;28;21076;-75
2022/12/09 11:55:22;;;;;;;64.30;26.10;;;2.70;99.90;;;;;;5077494;28;20411;-75
2022/12/09 11:58:02;;;;;;;51.95;26.65;;;2.50;99.90;;;;;;5076368;28;20485;-75
2022/12/09 12:00:53;;;;;;;78.53;28.33;;;2.40;99.90;;;;;;5089086;28;20418;-74
2022/12/09 12:03:46;;;;;;;103.95;28.05;;;2.10;99.90;;;;;;5088751;28;20437;-74
2022/12/09 12:06:26;;;;;;;149.50;30.23;;;1.90;99.90;;;;;;5080002;28;20410;-74
2022/12/09 12:09:23;;;;;;;126.90;30.60;;;1.70;99.90;;;;;;5087777;28;20425;-74
2022/12/09 12:12:08;;;;;;;114.95;30.75;;;1.60;99.90;;;;;;5085261;28;20418;-74
2022/12/09 12:14:36;;;;;;;99.68;29.35;;;1.50;99.90;;;;;;5081784;28;20399;-74
2022/12/09 12:17:15;;;;;;;95.20;29.30;;;1.40;99.90;;;;;;5089455;28;20988;-75
2022/12/09 12:19:44;;;;;;;129.10;31.97;;;1.30;99.90;;;;;;5087699;28;20747;-75
2022/12/09 12:22:46;;;;;;;71.97;29.77;;;1.20;99.90;;;;;;5075479;28;20422;-74
2022/12/09 12:25:33;;;;;;;72.25;29.85;;;1.10;99.90;;;;;;5086660;28;20446;-74
2022/12/09 12:28:24;;;;;;;71.00;28.70;;;1.10;99.90;;;;;;5088935;28;20952;-74
2022/12/09 12:31:02;;;;;;;65.35;28.20;;;1.00;99.90;;;;;;5076722;28;20420;-74
2022/12/09 12:33:38;;;;;;;76.10;29.67;;;1.00;99.90;;;;;;5082007;28;20407;-74
2022/12/09 12:36:42;;;;;;;66.53;28.45;;;1.00;99.90;;;;;;5074354;28;20407;-74
2022/12/09 12:39:21;;;;;;;61.30;27.38;;;1.00;99.90;;;;;;5071914;28;20419;-74
2022/12/09 12:41:53;;;;;;;64.03;27.33;;;1.00;99.90;;;;;;5086267;28;20398;-74